Time;durP1;ratioP1;P1;durP2;ratioP2;P2;SDS_P1;SDS_P2;PMS_P1;PMS_P2;Temp;Humidity;BMP_temperature;BMP_pressure;BME280_temperature;BME280_humidity;BME280_pressure;Samples;Min_cycle;Max_cycle;Signal;HPM_P1;HPM_P2
2022/10/03 00:00:38;;;;;;;1.05;0.80;;;;;;;16.33;90.08;100019.31;4996437;28;20191;-80
2022/10/03 00:03:31;;;;;;;1.00;0.80;;;;;;;16.45;89.47;100018.31;4993254;28;20722;-79
2022/10/03 00:06:08;;;;;;;3.20;1.00;;;;;;;16.35;90.43;100013.19;5047034;28;20750;-79
2022/10/03 00:09:09;;;;;;;0.70;0.70;;;;;;;16.33;90.88;99999.25;5043344;28;20195;-80
2022/10/03 00:11:45;;;;;;;2.45;0.98;;;;;;;16.40;90.38;100004.41;4979541;28;21110;-79
2022/10/03 00:14:20;;;;;;;2.55;0.90;;;;;;;16.35;90.66;100013.19;4976855;28;20233;-81
2022/10/03 00:16:53;;;;;;;1.05;0.77;;;;;;;16.22;90.82;100000.22;4976428;28;20634;-81
2022/10/03 00:19:30;;;;;;;1.60;0.85;;;;;;;16.31;91.73;100011.47;4978529;28;20204;-80
2022/10/03 00:22:15;;;;;;;1.38;0.85;;;;;;;16.31;91.91;100005.38;4973426;28;20363;-81
2022/10/03 00:24:56;;;;;;;0.95;0.70;;;;;;;16.23;91.98;99981.88;4980700;28;21140;-81
2022/10/03 00:27:33;;;;;;;0.70;0.70;;;;;;;16.38;91.55;100005.28;4999543;28;20200;-81
2022/10/03 00:30:17;;;;;;;1.20;1.20;;;;;;;16.29;91.54;100008.00;5037503;28;20191;-81
2022/10/03 00:33:06;;;;;;;0.95;0.73;;;;;;;16.19;92.79;100005.50;5032057;28;20196;-79
2022/10/03 00:35:50;;;;;;;0.73;0.70;;;;;;;16.15;94.09;100001.16;5035322;28;20207;-81
2022/10/03 00:38:37;;;;;;;1.50;0.90;;;;;;;15.96;95.15;99971.69;5035764;28;20200;-81
2022/10/03 00:41:21;;;;;;;1.27;0.80;;;;;;;16.08;94.50;99995.13;5009056;28;20200;-81
2022/10/03 00:44:21;;;;;;;0.80;0.77;;;;;;;16.02;95.54;99991.66;5034199;28;20303;-80
2022/10/03 00:47:19;;;;;;;0.65;0.65;;;;;;;16.03;95.96;99989.06;4978523;28;20326;-80
2022/10/03 00:50:16;;;;;;;0.70;0.70;;;;;;;15.97;96.98;99983.88;5025773;28;20201;-80
2022/10/03 00:53:04;;;;;;;0.90;0.80;;;;;;;15.68;98.93;99954.50;5023486;28;20299;-81
2022/10/03 00:55:47;;;;;;;0.70;0.70;;;;;;;15.76;99.55;99977.09;5024000;28;20200;-79
2022/10/03 00:58:30;;;;;;;1.30;0.75;;;;;;;15.72;100.00;99975.38;4976486;28;20211;-79
2022/10/03 01:01:05;;;;;;;0.80;0.80;;;;;;;15.56;100.00;99970.25;5022936;28;20207;-81
2022/10/03 01:03:42;;;;;;;0.75;0.75;;;;;;;15.61;100.00;99973.72;5023310;28;20715;-81
2022/10/03 01:06:25;;;;;;;0.70;0.70;;;;;;;15.57;100.00;99972.00;5028170;28;20334;-80
2022/10/03 01:09:10;;;;;;;1.45;0.80;;;;;;;15.51;100.00;99977.28;5022005;28;20212;-79
2022/10/03 01:11:52;;;;;;;0.82;0.80;;;;;;;15.48;100.00;99977.25;5022707;28;20211;-80
2022/10/03 01:14:32;;;;;;;1.38;0.88;;;;;;;15.44;100.00;99975.53;5022584;28;20267;-81
2022/10/03 01:17:09;;;;;;;0.65;0.65;;;;;;;15.38;100.00;99966.84;5021896;28;20211;-81
2022/10/03 01:19:59;;;;;;;1.27;0.80;;;;;;;15.27;100.00;99946.88;5022502;28;20204;-79
2022/10/03 01:22:52;;;;;;;1.50;0.90;;;;;;;15.31;100.00;99970.38;5022233;28;20204;-79
2022/10/03 01:25:36;;;;;;;1.15;0.90;;;;;;;15.20;100.00;99938.22;5089471;28;20218;-81
2022/10/03 01:31:17;;;;;;;0.95;0.88;;;;;;;15.32;100.00;99974.75;5095372;28;20205;-76
2022/10/03 01:33:49;;;;;;;1.35;0.88;;;;;;;15.31;100.00;99977.34;5097545;28;20216;-80
2022/10/03 01:36:20;;;;;;;2.60;1.00;;;;;;;15.29;100.00;99974.75;5094080;28;20202;-82
2022/10/03 01:38:54;;;;;;;1.95;0.90;;;;;;;15.24;100.00;99965.19;5096874;28;20198;-79
2022/10/03 01:41:42;;;;;;;0.80;0.80;;;;;;;15.29;100.00;99979.97;5096000;28;20201;-80
2022/10/03 01:44:16;;;;;;;1.75;0.88;;;;;;;15.11;100.00;99947.88;5089736;28;20198;-80
2022/10/03 01:46:50;;;;;;;1.70;0.90;;;;;;;15.30;100.00;99991.31;5093334;28;20267;-79
2022/10/03 01:49:24;;;;;;;1.40;0.90;;;;;;;15.23;100.00;99959.09;5053675;28;20208;-80
2022/10/03 01:51:59;;;;;;;1.25;0.80;;;;;;;15.31;100.00;99967.75;5099327;28;20301;-81
2022/10/03 01:54:34;;;;;;;1.20;0.90;;;;;;;15.41;100.00;99986.00;5092527;28;20291;-81
2022/10/03 01:57:10;;;;;;;1.48;0.90;;;;;;;15.29;100.00;99992.16;5100062;28;20555;-80
2022/10/03 01:59:47;;;;;;;0.70;0.70;;;;;;;15.33;100.00;99980.84;5097019;28;20196;-82
2022/10/03 02:02:21;;;;;;;2.22;0.95;;;;;;;15.37;100.00;99996.47;5108104;28;20229;-83
2022/10/03 02:04:56;;;;;;;0.70;0.70;;;;;;;15.28;100.00;99993.03;5111539;28;20213;-82
2022/10/03 02:07:30;;;;;;;1.60;0.80;;;;;;;15.27;100.00;99993.91;5109168;28;20213;-81
2022/10/03 02:10:07;;;;;;;1.50;0.77;;;;;;;15.32;100.00;99985.19;5065686;28;20202;-78
2022/10/03 02:12:39;;;;;;;2.63;1.00;;;;;;;15.19;100.00;99975.69;5096109;28;20320;-81
2022/10/03 02:15:19;;;;;;;2.30;1.15;;;;;;;15.02;100.00;99958.38;5099807;28;20213;-79
2022/10/03 02:17:56;;;;;;;2.17;0.90;;;;;;;15.05;100.00;99976.63;5054690;28;20201;-80
2022/10/03 02:20:32;;;;;;;2.25;0.90;;;;;;;15.06;100.00;99978.34;5110639;28;20282;-82
2022/10/03 02:22:59;;;;;;;2.67;1.00;;;;;;;15.09;100.00;99965.31;5113240;28;20584;-80
2022/10/03 02:25:50;;;;;;;3.28;1.10;;;;;;;15.17;100.00;99966.97;5121369;28;20254;-82
2022/10/03 02:28:44;;;;;;;1.63;0.90;;;;;;;15.19;100.00;99953.94;5040005;28;20715;-80
2022/10/03 02:31:39;;;;;;;3.00;1.00;;;;;;;15.20;100.00;99956.50;5107394;28;20225;-80
2022/10/03 02:34:29;;;;;;;3.90;1.13;;;;;;;15.26;100.00;99959.09;5112711;28;20220;-82
2022/10/03 02:37:19;;;;;;;2.58;1.00;;;;;;;15.21;100.00;99947.81;5108914;28;21943;-79
2022/10/03 02:40:26;;;;;;;1.95;0.90;;;;;;;15.29;100.00;99966.03;5101300;28;20212;-81
2022/10/03 02:43:32;;;;;;;1.58;0.90;;;;;;;15.41;100.00;99962.50;5100597;28;20203;-80
2022/10/03 02:46:28;;;;;;;2.42;0.98;;;;;;;15.48;100.00;99959.81;5095638;28;20270;-81
2022/10/03 02:49:32;;;;;;;2.00;1.00;;;;;;;15.46;100.00;99951.13;5092804;28;20198;-80
2022/10/03 02:52:30;;;;;;;1.38;0.80;;;;;;;15.63;100.00;99961.47;5013941;28;20211;-82
2022/10/03 02:55:26;;;;;;;0.70;0.70;;;;;;;15.43;100.00;99939.81;4953552;28;20204;-82
2022/10/03 02:58:40;;;;;;;3.35;1.08;;;;;;;15.69;100.00;99958.84;5013591;28;20203;-80
2022/10/03 03:01:42;;;;;;;0.95;0.82;;;;;;;15.73;100.00;99973.63;4930705;29;20251;-81
2022/10/03 03:04:40;;;;;;;1.65;0.90;;;;;;;15.77;100.00;99983.16;4845836;29;20203;-82
2022/10/03 03:07:37;;;;;;;1.30;0.80;;;;;;;15.82;100.00;99986.63;4846201;29;20206;-81
2022/10/03 03:10:29;;;;;;;2.47;0.98;;;;;;;15.88;100.00;99979.59;4849689;29;20211;-82
2022/10/03 03:13:21;;;;;;;0.80;0.80;;;;;;;15.84;100.00;99979.63;4840549;29;20241;-82
2022/10/03 03:16:20;;;;;;;1.75;0.90;;;;;;;15.83;100.00;99970.06;4847213;29;20206;-81
2022/10/03 03:19:04;;;;;;;2.20;0.90;;;;;;;15.82;100.00;99955.25;4839708;29;20203;-81
2022/10/03 03:21:40;;;;;;;0.80;0.80;;;;;;;15.83;100.00;99959.59;4847146;29;20210;-79
2022/10/03 03:24:22;;;;;;;2.63;0.95;;;;;;;16.02;100.00;99963.78;4841187;29;20845;-82
2022/10/03 03:27:06;;;;;;;1.75;0.90;;;;;;;15.92;100.00;99954.28;4842799;29;20233;-79
2022/10/03 03:29:42;;;;;;;2.70;1.00;;;;;;;15.98;100.00;99959.44;4887805;29;20212;-81
2022/10/03 03:32:20;;;;;;;2.08;0.90;;;;;;;16.11;100.00;99974.16;4842462;29;20212;-80
2022/10/03 03:34:58;;;;;;;1.90;0.90;;;;;;;16.08;100.00;99970.72;4883671;29;20204;-81
2022/10/03 03:37:34;;;;;;;1.55;0.88;;;;;;;16.08;100.00;99968.09;4964044;28;20233;-79
2022/10/03 03:40:20;;;;;;;1.85;0.90;;;;;;;16.06;100.00;99962.88;4994807;28;20229;-81
2022/10/03 03:43:11;;;;;;;2.10;0.80;;;;;;;16.05;100.00;99952.44;5096206;28;20198;-81
2022/10/03 03:45:50;;;;;;;1.42;0.80;;;;;;;16.16;100.00;99959.28;5096086;28;20225;-82
2022/10/03 03:48:43;;;;;;;1.40;0.82;;;;;;;16.07;100.00;99955.91;5093253;28;20665;-82
2022/10/03 03:51:22;;;;;;;1.77;0.88;;;;;;;16.08;100.00;99950.66;5093101;28;20194;-81
2022/10/03 03:54:07;;;;;;;4.10;1.10;;;;;;;16.13;100.00;99943.63;5094250;28;20654;-82
2022/10/03 03:56:50;;;;;;;1.75;0.90;;;;;;;16.14;100.00;99940.13;5098135;28;20213;-82
2022/10/03 03:59:36;;;;;;;2.00;0.90;;;;;;;16.08;100.00;99939.31;5100807;28;20209;-81
2022/10/03 04:02:18;;;;;;;1.52;0.80;;;;;;;16.13;100.00;99946.22;5105888;28;20217;-77
2022/10/03 04:05:01;;;;;;;3.00;0.93;;;;;;;16.08;100.00;99929.75;5096895;28;20198;-71
2022/10/03 04:07:41;;;;;;;2.45;0.90;;;;;;;16.11;100.00;99940.16;5095062;28;20197;-82
2022/10/03 04:10:24;;;;;;;1.13;0.80;;;;;;;15.89;100.00;99920.31;5094621;28;20205;-83
2022/10/03 04:13:17;;;;;;;3.22;1.08;;;;;;;15.95;100.00;99928.09;5096495;28;20218;-79
2022/10/03 04:16:00;;;;;;;0.85;0.80;;;;;;;16.03;100.00;99959.41;5093651;28;20911;-83
2022/10/03 04:18:59;;;;;;;1.80;1.00;;;;;;;16.09;100.00;99961.97;5052677;28;20202;-80
2022/10/03 04:21:59;;;;;;;2.78;0.90;;;;;;;16.02;100.00;99965.50;5094293;28;20677;-83
2022/10/03 04:25:02;;;;;;;2.17;0.85;;;;;;;16.06;100.00;99962.00;4974247;28;20196;-84
2022/10/03 04:28:02;;;;;;;1.92;0.90;;;;;;;16.13;100.00;99963.69;5023741;28;20196;-84
2022/10/03 04:30:41;;;;;;;1.27;0.80;;;;;;;16.07;100.00;99967.22;5021535;28;21018;-81
2022/10/03 04:33:25;;;;;;;2.63;0.95;;;;;;;16.19;100.00;99969.75;5022625;28;20304;-82
2022/10/03 04:36:25;;;;;;;2.30;0.95;;;;;;;16.00;100.00;99934.16;5025589;28;20211;-86
2022/10/03 04:39:04;;;;;;;2.53;0.98;;;;;;;16.19;100.00;99971.50;4937320;29;20684;-87
2022/10/03 04:41:40;;;;;;;2.15;0.90;;;;;;;16.14;100.00;99963.69;4935443;29;20612;-79
2022/10/03 04:44:21;;;;;;;4.00;1.00;;;;;;;16.20;100.00;99966.22;4935255;29;20660;-82
2022/10/03 04:46:55;;;;;;;1.60;0.85;;;;;;;16.23;100.00;99971.41;4937205;29;20231;-83
2022/10/03 04:49:31;;;;;;;3.83;1.15;;;;;;;16.15;100.00;99961.94;4937459;29;20215;-84
2022/10/03 04:52:02;;;;;;;2.42;0.98;;;;;;;16.27;100.00;99973.13;4912581;29;20195;-85
2022/10/03 04:54:42;;;;;;;4.35;1.23;;;;;;;16.36;100.00;99978.28;4939183;29;20207;-83
2022/10/03 04:57:22;;;;;;;2.35;0.90;;;;;;;16.40;100.00;99976.50;4933215;28;20337;-86
2022/10/03 04:59:56;;;;;;;1.40;0.90;;;;;;;16.44;100.00;99975.59;4938207;28;20305;-85
2022/10/03 05:02:34;;;;;;;1.90;0.82;;;;;;;16.46;100.00;99983.41;4984237;28;20201;-84
2022/10/03 05:05:18;;;;;;;1.58;0.90;;;;;;;16.37;100.00;99984.38;5001653;28;20208;-83
2022/10/03 05:07:52;;;;;;;0.88;0.80;;;;;;;16.37;100.00;99977.38;5004597;28;20293;-85
2022/10/03 05:10:52;;;;;;;2.28;0.90;;;;;;;16.42;100.00;99955.53;5004096;28;20212;-83
2022/10/03 05:13:31;;;;;;;3.25;1.00;;;;;;;16.64;100.00;99975.41;4968425;28;20242;-75
2022/10/03 05:16:08;;;;;;;3.75;1.10;;;;;;;16.54;100.00;99981.59;5000495;28;20291;-81
2022/10/03 05:18:43;;;;;;;2.65;0.98;;;;;;;16.35;100.00;99986.13;5028277;28;20230;-78
2022/10/03 05:21:15;;;;;;;3.08;1.02;;;;;;;16.20;100.00;99960.13;4985274;28;20208;-80
2022/10/03 05:23:51;;;;;;;1.73;0.90;;;;;;;16.30;100.00;99988.78;5027863;28;20197;-80
2022/10/03 05:26:27;;;;;;;2.88;1.00;;;;;;;16.32;100.00;99997.50;5028337;28;20763;-81
2022/10/03 05:29:02;;;;;;;1.45;0.88;;;;;;;16.29;100.00;99994.06;5027197;28;20242;-81
2022/10/03 05:31:43;;;;;;;2.63;1.05;;;;;;;16.30;100.00;99986.19;5028917;28;20211;-80
2022/10/03 05:34:23;;;;;;;3.75;1.10;;;;;;;16.20;100.00;99983.66;5028230;28;21085;-74
2022/10/03 05:37:13;;;;;;;3.13;1.02;;;;;;;16.20;100.00;99987.16;5027977;28;20212;-77
2022/10/03 05:39:46;;;;;;;3.05;1.00;;;;;;;16.22;100.00;100013.31;5031423;28;20199;-78
2022/10/03 05:42:34;;;;;;;3.85;1.05;;;;;;;16.21;100.00;100015.06;5028962;28;20311;-78
2022/10/03 05:45:05;;;;;;;3.45;1.08;;;;;;;15.98;100.00;100019.59;5028411;28;20200;-77
2022/10/03 05:47:45;;;;;;;1.52;0.80;;;;;;;15.99;100.00;100008.25;5028497;28;20227;-79
2022/10/03 05:50:49;;;;;;;1.27;0.85;;;;;;;16.10;100.00;100001.19;5030289;28;20683;-78
2022/10/03 05:53:46;;;;;;;4.88;1.17;;;;;;;16.46;100.00;99972.94;5069850;28;20582;-79
2022/10/03 05:56:25;;;;;;;4.78;2.22;;;;;;;16.79;100.00;99991.81;5051877;28;20210;-82
2022/10/03 05:59:22;;;;;;;2.55;1.00;;;;;;;17.25;100.00;99984.22;5070969;28;20615;-79
2022/10/03 06:02:23;;;;;;;3.28;1.00;;;;;;;16.84;100.00;100015.31;5071300;28;20287;-82
2022/10/03 06:05:11;;;;;;;2.88;0.90;;;;;;;16.68;100.00;100008.50;5069956;28;20293;-79
2022/10/03 06:07:52;;;;;;;2.63;0.90;;;;;;;16.54;100.00;100005.16;5029342;28;20222;-80
2022/10/03 06:10:49;;;;;;;1.77;0.88;;;;;;;16.62;100.00;100005.97;5065452;28;20206;-78
2022/10/03 06:13:32;;;;;;;2.97;1.02;;;;;;;16.47;100.00;100000.84;5089590;28;20232;-84
2022/10/03 06:16:15;;;;;;;2.38;1.00;;;;;;;16.34;100.00;99989.63;5111882;28;20209;-80
2022/10/03 06:19:06;;;;;;;1.67;0.80;;;;;;;16.52;100.00;99988.56;5123332;28;20261;-83
2022/10/03 06:22:18;;;;;;;1.10;0.82;;;;;;;16.50;100.00;99972.03;5113433;28;20195;-79
2022/10/03 06:25:40;;;;;;;1.95;0.82;;;;;;;16.25;100.00;99974.91;5108001;28;20617;-79
2022/10/03 06:28:30;;;;;;;1.50;0.80;;;;;;;16.42;100.00;99973.84;5044043;28;20214;-82
2022/10/03 06:31:41;;;;;;;0.60;0.60;;;;;;;16.18;100.00;99975.84;5049152;28;20222;-83
2022/10/03 06:34:31;;;;;;;2.17;1.00;;;;;;;16.12;100.00;99968.06;4910091;29;20212;-82
2022/10/03 06:37:42;;;;;;;2.35;1.00;;;;;;;16.12;100.00;99965.44;4910609;29;20222;-82
2022/10/03 06:40:46;;;;;;;11.95;1.88;;;;;;;16.08;100.00;99963.75;4816044;29;20670;-83
2022/10/03 06:43:38;;;;;;;1.45;0.82;;;;;;;16.27;100.00;99967.91;4821330;29;20215;-82
2022/10/03 06:46:41;;;;;;;1.58;0.98;;;;;;;16.23;100.00;99971.41;4819307;29;20243;-81
2022/10/03 06:49:30;;;;;;;1.05;0.80;;;;;;;16.23;100.00;99971.41;4783363;30;20216;-77
2022/10/03 06:52:27;;;;;;;1.45;0.80;;;;;;;16.80;100.00;99940.31;4783507;30;20728;-77
2022/10/03 06:55:35;;;;;;;1.85;0.93;;;;;;;16.38;100.00;99976.50;4774305;30;20613;-78
2022/10/03 06:58:36;;;;;;;1.95;0.88;;;;;;;16.12;100.00;99961.97;4757176;30;20209;-78
2022/10/03 07:01:32;;;;;;;1.85;1.05;;;;;;;15.80;100.00;99959.63;4783346;30;20201;-79
2022/10/03 07:04:30;;;;;;;3.05;0.90;;;;;;;15.96;100.00;99945.53;4792148;29;20211;-77
2022/10/03 07:07:23;;;;;;;2.45;0.93;;;;;;;15.95;100.00;99964.72;4819806;29;20670;-77
2022/10/03 07:10:23;;;;;;;3.70;1.08;;;;;;;15.69;100.00;99951.00;4828315;29;20218;-77
2022/10/03 07:13:27;;;;;;;3.80;1.08;;;;;;;15.58;100.00;99942.38;4949968;29;20246;-77
2022/10/03 07:16:26;;;;;;;1.92;0.90;;;;;;;15.98;100.00;99948.16;4913431;29;20203;-79
2022/10/03 07:19:15;;;;;;;0.80;0.80;;;;;;;15.75;100.00;99954.44;4931061;29;20216;-78
2022/10/03 07:22:29;;;;;;;0.80;0.80;;;;;;;15.69;100.00;99953.63;4972450;28;20210;-77
2022/10/03 07:25:32;;;;;;;0.70;0.70;;;;;;;16.10;100.00;99954.13;4915556;29;20275;-77
2022/10/03 07:28:21;;;;;;;0.70;0.70;;;;;;;15.94;100.00;99944.69;4915393;29;20228;-76
2022/10/03 07:31:01;;;;;;;0.80;0.80;;;;;;;15.80;100.00;99912.56;4915502;29;20215;-76
2022/10/03 07:33:49;;;;;;;0.90;0.90;;;;;;;15.83;100.00;99909.94;4902014;29;20239;-79
2022/10/03 07:39:42;;;;;;;0.90;0.90;;;;;;;15.85;100.00;99909.03;4915482;29;20223;-78
2022/10/03 07:42:46;;;;;;;0.82;0.82;;;;;;;16.04;100.00;99922.81;4899349;29;20693;-77
2022/10/03 07:45:36;;;;;;;0.80;0.80;;;;;;;16.40;100.00;99925.91;4914951;29;20204;-75
2022/10/03 07:48:49;;;;;;;0.80;0.80;;;;;;;16.94;100.00;99932.28;4915052;29;20567;-76
2022/10/03 07:51:29;;;;;;;0.80;0.80;;;;;;;16.97;100.00;99933.09;4917594;29;20207;-77
2022/10/03 07:54:31;;;;;;;0.80;0.80;;;;;;;17.27;100.00;99929.16;4936804;29;20203;-77
2022/10/03 07:57:21;;;;;;;0.70;0.70;;;;;;;17.62;100.00;99931.31;5026587;28;20214;-77
2022/10/03 08:00:09;;;;;;;0.70;0.70;;;;;;;16.83;100.00;99848.63;5031345;28;20278;-77
2022/10/03 08:03:11;;;;;;;0.90;0.90;;;;;;;17.47;100.00;99926.25;5113945;28;20246;-77
2022/10/03 08:05:53;;;;;;;0.90;0.90;;;;;;;17.25;100.00;99889.03;5050734;28;20206;-76
2022/10/03 08:08:55;;;;;;;0.80;0.80;;;;;;;17.62;100.00;99931.31;5050873;28;20629;-76
2022/10/03 08:12:04;;;;;;;0.80;0.80;;;;;;;17.79;100.00;99939.75;5011380;28;20201;-77
2022/10/03 08:14:44;;;;;;;0.70;0.70;;;;;;;17.70;100.00;99950.38;4952500;29;20319;-77
2022/10/03 08:17:35;;;;;;;0.70;0.70;;;;;;;17.87;100.00;99958.88;4952851;29;20929;-79
2022/10/03 08:20:31;;;;;;;0.60;0.60;;;;;;;18.39;100.00;99965.81;4952369;29;20203;-77
2022/10/03 08:23:15;;;;;;;0.70;0.70;;;;;;;18.58;100.00;99949.72;4895260;29;20208;-78
2022/10/03 08:25:59;;;;;;;0.65;0.65;;;;;;;19.00;100.00;99990.03;4895441;29;20985;-78
2022/10/03 08:28:53;;;;;;;0.90;0.90;;;;;;;18.59;100.00;99942.69;4851223;29;20292;-78
2022/10/03 08:31:55;;;;;;;0.80;0.80;;;;;;;18.55;100.00;99997.03;4894891;29;20207;-78
2022/10/03 08:34:50;;;;;;;0.80;0.80;;;;;;;18.11;100.00;99973.31;4802203;29;20226;-78
2022/10/03 08:43:47;;;;;;;0.70;0.70;;;;;;;17.21;100.00;99979.91;4722124;30;20238;-79
2022/10/03 08:46:37;;;;;;;0.98;0.98;;;;;;;16.65;100.00;99928.28;4739747;30;20208;-79
2022/10/03 08:49:27;;;;;;;0.77;0.77;;;;;;;16.99;100.00;99965.34;4785079;29;20220;-78
2022/10/03 08:52:15;;;;;;;0.93;0.93;;;;;;;16.86;100.00;99937.59;4757047;30;20216;-78
2022/10/03 08:55:23;;;;;;;1.00;1.00;;;;;;;17.23;100.00;99966.78;4767226;30;20224;-78
2022/10/03 08:58:12;;;;;;;0.70;0.70;;;;;;;17.17;100.00;99938.91;4757519;30;20266;-78
2022/10/03 09:01:02;;;;;;;0.70;0.70;;;;;;;17.40;100.00;99937.72;4800581;29;20220;-79
2022/10/03 09:04:25;;;;;;;0.70;0.70;;;;;;;17.44;100.00;99947.28;4803473;29;20294;-78
2022/10/03 09:07:11;;;;;;;0.75;0.75;;;;;;;17.33;100.00;99914.25;4803077;29;20710;-77
2022/10/03 09:10:06;;;;;;;0.85;0.85;;;;;;;17.25;100.00;99916.09;4802768;29;20625;-77
2022/10/03 09:12:57;;;;;;;0.80;0.80;;;;;;;17.19;100.00;99946.78;4922412;29;20771;-79
2022/10/03 09:15:47;;;;;;;0.80;0.80;;;;;;;17.28;100.00;99952.75;4933184;29;20274;-77
2022/10/03 09:18:44;;;;;;;0.70;0.70;;;;;;;17.14;100.00;99931.09;4993856;28;20219;-77
2022/10/03 09:21:46;;;;;;;0.80;0.80;;;;;;;17.26;100.00;99936.19;4969568;28;20213;-78
2022/10/03 09:24:47;;;;;;;0.70;0.70;;;;;;;17.61;100.00;99945.28;4900283;29;20209;-80
2022/10/03 09:27:25;;;;;;;0.90;0.90;;;;;;;17.58;100.00;99920.00;4845688;29;20599;-78
2022/10/03 09:30:19;;;;;;;0.80;0.80;;;;;;;18.01;100.00;99950.75;4866789;29;20258;-76
2022/10/03 09:33:45;;;;;;;0.70;0.70;;;;;;;18.00;100.00;99970.00;4875511;29;20750;-76
2022/10/03 09:36:44;;;;;;;0.93;0.93;;;;;;;18.52;100.00;99969.97;4875793;29;20594;-74
2022/10/03 09:39:54;;;;;;;0.82;0.82;;;;;;;18.83;100.00;99976.38;4875487;29;20262;-80
2022/10/03 09:42:41;;;;;;;0.80;0.80;;;;;;;18.69;100.00;99954.75;4875447;29;20696;-75
2022/10/03 09:45:33;;;;;;;1.80;1.70;;;;;;;18.90;100.00;99971.84;4874859;29;20749;-72
2022/10/03 09:48:24;;;;;;;0.70;0.70;;;;;;;18.92;100.00;99981.41;4801794;29;20239;-71
2022/10/03 09:51:16;;;;;;;0.70;0.70;;;;;;;18.32;100.00;99973.81;4802151;29;20305;-72
2022/10/03 09:54:16;;;;;;;0.80;0.80;;;;;;;18.05;100.00;99968.19;4801929;29;20227;-72
2022/10/03 09:57:21;;;;;;;0.80;0.80;;;;;;;17.92;100.00;99972.75;4801804;29;20240;-72
2022/10/03 10:00:15;;;;;;;0.70;0.70;;;;;;;17.56;100.00;99960.19;4820455;29;20219;-73
2022/10/03 10:03:24;;;;;;;0.70;0.70;;;;;;;17.49;100.00;99951.56;4838036;29;20730;-73
2022/10/03 10:06:19;;;;;;;0.70;0.70;;;;;;;17.43;100.00;99945.53;4893407;29;20223;-73
2022/10/03 10:09:34;;;;;;;0.70;0.70;;;;;;;17.62;100.00;99940.00;4893552;29;20239;-73
2022/10/03 10:12:33;;;;;;;1.13;1.10;;;;;;;17.72;100.00;99943.38;4893253;29;20695;-73
2022/10/03 10:15:35;;;;;;;0.80;0.80;;;;;;;17.73;100.00;99918.84;4847111;29;20228;-73
2022/10/03 10:18:38;;;;;;;0.75;0.75;;;;;;;17.66;100.00;99948.69;4893555;29;20204;-73
2022/10/03 10:21:35;;;;;;;0.93;0.93;;;;;;;17.99;100.00;99934.16;4893346;29;20983;-72
2022/10/03 10:24:35;;;;;;;0.70;0.70;;;;;;;18.12;100.00;99939.16;4917159;28;20211;-72
2022/10/03 10:27:35;;;;;;;0.70;0.70;;;;;;;18.40;100.00;99928.16;4945263;28;20237;-84
2022/10/03 10:30:13;;;;;;;0.80;0.80;;;;;;;18.58;100.00;99938.34;4932294;29;20246;-84
2022/10/03 10:33:17;;;;;;;0.70;0.70;;;;;;;18.77;100.00;99923.94;4932787;29;20211;-82
2022/10/03 10:36:21;;;;;;;0.70;0.70;;;;;;;19.06;100.00;99921.56;4903592;28;20207;-81
2022/10/03 10:39:30;;;;;;;0.70;0.70;;;;;;;18.87;100.00;99907.06;4994027;28;20205;-81
2022/10/03 10:42:37;;;;;;;0.63;0.63;;;;;;;18.84;100.00;99912.41;4999280;28;20207;-82
2022/10/03 10:45:30;;;;;;;0.70;0.70;;;;;;;19.27;100.00;99913.19;5048613;28;20203;-80
2022/10/03 10:48:47;;;;;;;0.60;0.60;;;;;;;18.88;100.00;99885.16;5048592;28;20223;-81
2022/10/03 10:51:50;;;;;;;0.70;0.70;;;;;;;18.86;100.00;99901.88;4989515;28;20201;-80
2022/10/03 10:54:51;;;;;;;0.80;0.80;;;;;;;18.94;100.00;99913.91;4989610;28;20202;-82
2022/10/03 10:57:40;;;;;;;0.70;0.70;;;;;;;18.86;100.00;99849.31;4993506;28;20218;-82
2022/10/03 11:00:17;;;;;;;0.80;0.80;;;;;;;19.53;100.00;99895.97;4993280;28;20220;-81
2022/10/03 11:03:32;;;;;;;0.60;0.60;;;;;;;19.55;100.00;99894.19;4993261;28;20201;-82
2022/10/03 11:06:38;;;;;;;0.68;0.68;;;;;;;19.54;100.00;99888.03;5001797;28;20203;-81
2022/10/03 11:09:39;;;;;;;0.70;0.70;;;;;;;19.53;100.00;99881.03;4953810;29;20239;-81
2022/10/03 11:12:46;;;;;;;1.25;1.25;;;;;;;19.59;100.00;99895.81;4953726;29;20217;-80
2022/10/03 11:15:46;;;;;;;0.77;0.77;;;;;;;19.96;100.00;99896.59;4953883;29;20213;-80
2022/10/03 11:18:59;;;;;;;0.70;0.70;;;;;;;20.35;100.00;99878.03;4953899;29;20234;-81
2022/10/03 11:21:53;;;;;;;0.85;0.85;;;;;;;20.42;98.08;99900.66;4878220;29;20673;-80
2022/10/03 11:24:52;;;;;;;1.05;1.00;;;;;;;20.33;98.89;99900.94;4850556;29;20206;-80
2022/10/03 11:28:01;;;;;;;0.68;0.68;;;;;;;20.27;98.01;99892.28;4898517;29;20246;-75
2022/10/03 11:30:59;;;;;;;1.00;1.00;;;;;;;20.46;99.69;99897.03;4953441;29;20683;-74
2022/10/03 11:34:07;;;;;;;0.80;0.80;;;;;;;20.41;96.88;99888.38;4953505;29;20211;-77
2022/10/03 11:37:08;;;;;;;0.70;0.70;;;;;;;20.32;94.52;99904.47;4953257;29;20207;-76
2022/10/03 11:39:47;;;;;;;0.75;0.75;;;;;;;20.32;92.64;99886.03;4953007;29;20285;-77
2022/10/03 11:42:32;;;;;;;0.70;0.70;;;;;;;19.92;91.54;99871.28;4953512;29;20310;-82
2022/10/03 11:45:01;;;;;;;0.85;0.85;;;;;;;19.95;92.72;99888.75;4960600;28;20289;-77
2022/10/03 11:47:45;;;;;;;0.90;0.90;;;;;;;20.10;92.75;99893.59;5031367;28;20228;-83
2022/10/03 11:50:35;;;;;;;0.70;0.70;;;;;;;20.18;93.12;99886.38;5031360;28;20224;-80
2022/10/03 11:53:14;;;;;;;0.70;0.70;;;;;;;20.15;90.89;99887.34;5031091;28;20202;-77
2022/10/03 11:55:50;;;;;;;0.90;0.90;;;;;;;20.33;91.99;99882.50;5031523;28;20223;-77
2022/10/03 11:58:41;;;;;;;0.70;0.70;;;;;;;20.53;90.62;99880.16;5057086;28;20222;-76
2022/10/03 12:01:27;;;;;;;0.70;0.70;;;;;;;20.71;89.93;99888.41;5113930;28;20201;-77
2022/10/03 12:04:03;;;;;;;0.70;0.70;;;;;;;20.68;85.88;99872.69;5114522;28;20205;-77
2022/10/03 12:10:02;;;;;;;0.90;0.90;;;;;;;20.83;84.32;99884.53;5031035;28;20271;-77
2022/10/03 12:12:38;;;;;;;0.70;0.70;;;;;;;20.86;83.21;99880.94;5030599;28;20271;-77
2022/10/03 12:15:24;;;;;;;0.70;0.70;;;;;;;20.86;80.65;99870.41;5030780;28;20570;-76
2022/10/03 12:18:01;;;;;;;0.70;0.70;;;;;;;20.65;80.80;99890.34;5029077;28;20683;-77
2022/10/03 12:20:37;;;;;;;0.70;0.70;;;;;;;20.60;80.78;99874.66;5031157;28;20269;-77
2022/10/03 12:23:18;;;;;;;0.70;0.70;;;;;;;20.75;80.25;99870.72;5030985;28;20204;-76
2022/10/03 12:25:47;;;;;;;0.70;0.70;;;;;;;20.87;79.72;99865.06;5030874;28;20200;-78
2022/10/03 12:28:20;;;;;;;0.63;0.63;;;;;;;21.03;78.36;99862.84;5030754;28;20224;-78
2022/10/03 12:30:51;;;;;;;0.80;0.80;;;;;;;21.18;78.00;99858.00;4981327;28;20200;-77
2022/10/03 12:33:33;;;;;;;1.00;1.00;;;;;;;21.42;76.52;99884.47;5030483;28;20208;-77
2022/10/03 12:36:09;;;;;;;0.70;0.70;;;;;;;21.05;75.34;99876.81;5030282;28;20656;-76
2022/10/03 12:38:50;;;;;;;0.60;0.60;;;;;;;21.12;75.25;99881.88;5030456;28;20215;-76
2022/10/03 12:41:25;;;;;;;0.80;0.80;;;;;;;21.29;74.92;99854.13;5030325;28;20196;-76
2022/10/03 12:44:12;;;;;;;0.60;0.60;;;;;;;21.17;74.50;99844.84;5030493;28;20707;-77
2022/10/03 12:46:50;;;;;;;0.73;0.73;;;;;;;20.75;75.99;99862.81;5095292;28;20247;-76
2022/10/03 12:49:22;;;;;;;0.70;0.70;;;;;;;20.65;75.87;99864.00;5113137;28;20233;-76
2022/10/03 12:51:55;;;;;;;0.70;0.70;;;;;;;20.50;76.47;99848.63;5113208;28;20649;-76
2022/10/03 12:54:42;;;;;;;0.70;0.70;;;;;;;20.37;74.51;99874.44;5113214;28;20193;-77
2022/10/03 12:57:48;;;;;;;0.80;0.80;;;;;;;20.45;75.22;99863.69;5064336;28;20292;-77
2022/10/03 13:00:22;;;;;;;0.70;0.70;;;;;;;20.31;75.95;99856.19;5029175;28;20212;-78
2022/10/03 13:03:06;;;;;;;0.60;0.60;;;;;;;20.43;75.44;99860.25;5013839;28;20307;-78
2022/10/03 13:05:53;;;;;;;0.70;0.70;;;;;;;20.34;74.51;99824.50;5030029;28;20758;-78
2022/10/03 13:08:37;;;;;;;0.60;0.60;;;;;;;20.54;73.56;99859.06;5023778;28;20220;-77
2022/10/03 13:11:17;;;;;;;0.60;0.60;;;;;;;20.61;71.84;99849.19;4980621;28;20212;-79
2022/10/03 13:13:59;;;;;;;0.85;0.85;;;;;;;20.86;72.92;99850.19;5029341;28;20254;-77
2022/10/03 13:16:32;;;;;;;0.80;0.80;;;;;;;20.77;71.26;99850.44;5029404;28;20665;-78
2022/10/03 13:19:05;;;;;;;0.70;0.70;;;;;;;20.92;70.48;99844.72;5028854;28;20208;-77
2022/10/03 13:22:02;;;;;;;0.80;0.80;;;;;;;21.12;70.57;99841.47;5029935;28;20597;-78